sensor_id;sensor_type;location;lat;lon;timestamp;P1;durP1;ratioP1;P2;durP2;ratioP2
62951;SDS011;52163;52.212;-1.002;2022-08-19T00:00:19;6.80;;;2.80;;
62951;SDS011;52163;52.212;-1.002;2022-08-19T00:02:45;7.10;;;2.40;;
62951;SDS011;52163;52.212;-1.002;2022-08-19T00:05:12;4.40;;;2.40;;
62951;SDS011;52163;52.212;-1.002;2022-08-19T00:07:38;5.00;;;2.20;;
62951;SDS011;52163;52.212;-1.002;2022-08-19T00:10:05;7.10;;;2.50;;
62951;SDS011;52163;52.212;-1.002;2022-08-19T00:12:33;6.40;;;2.50;;
62951;SDS011;52163;52.212;-1.002;2022-08-19T00:15:00;6.10;;;2.70;;
62951;SDS011;52163;52.212;-1.002;2022-08-19T00:17:26;6.70;;;2.70;;
62951;SDS011;52163;52.212;-1.002;2022-08-19T00:19:51;7.50;;;3.10;;
62951;SDS011;52163;52.212;-1.002;2022-08-19T00:22:17;7.00;;;2.80;;
62951;SDS011;52163;52.212;-1.002;2022-08-19T00:24:43;7.10;;;2.50;;
62951;SDS011;52163;52.212;-1.002;2022-08-19T00:27:10;5.70;;;2.40;;
62951;SDS011;52163;52.212;-1.002;2022-08-19T00:29:37;5.20;;;2.10;;
62951;SDS011;52163;52.212;-1.002;2022-08-19T00:32:03;6.30;;;2.20;;
62951;SDS011;52163;52.212;-1.002;2022-08-19T00:34:29;9.00;;;2.90;;
62951;SDS011;52163;52.212;-1.002;2022-08-19T00:36:55;6.60;;;2.80;;
62951;SDS011;52163;52.212;-1.002;2022-08-19T00:39:21;7.90;;;3.00;;
62951;SDS011;52163;52.212;-1.002;2022-08-19T00:41:47;9.90;;;3.40;;
62951;SDS011;52163;52.212;-1.002;2022-08-19T00:44:15;6.20;;;3.10;;
62951;SDS011;52163;52.212;-1.002;2022-08-19T00:46:44;6.30;;;2.70;;
62951;SDS011;52163;52.212;-1.002;2022-08-19T00:49:16;6.90;;;2.50;;
62951;SDS011;52163;52.212;-1.002;2022-08-19T00:51:45;4.40;;;2.30;;
62951;SDS011;52163;52.212;-1.002;2022-08-19T00:54:12;7.40;;;3.10;;
62951;SDS011;52163;52.212;-1.002;2022-08-19T00:56:38;5.90;;;2.80;;
62951;SDS011;52163;52.212;-1.002;2022-08-19T00:59:05;9.60;;;3.70;;
62951;SDS011;52163;52.212;-1.002;2022-08-19T01:01:38;6.10;;;3.00;;
62951;SDS011;52163;52.212;-1.002;2022-08-19T01:04:05;4.80;;;2.50;;
62951;SDS011;52163;52.212;-1.002;2022-08-19T01:06:31;5.50;;;2.50;;
62951;SDS011;52163;52.212;-1.002;2022-08-19T01:08:59;4.70;;;2.40;;
62951;SDS011;52163;52.212;-1.002;2022-08-19T01:11:25;6.30;;;2.10;;
62951;SDS011;52163;52.212;-1.002;2022-08-19T01:13:52;5.70;;;2.70;;
62951;SDS011;52163;52.212;-1.002;2022-08-19T01:16:19;6.70;;;3.20;;
62951;SDS011;52163;52.212;-1.002;2022-08-19T01:18:46;5.30;;;2.80;;
62951;SDS011;52163;52.212;-1.002;2022-08-19T01:21:55;5.60;;;3.10;;
62951;SDS011;52163;52.212;-1.002;2022-08-19T01:24:11;4.30;;;2.70;;
62951;SDS011;52163;52.212;-1.002;2022-08-19T01:26:40;5.80;;;2.60;;
62951;SDS011;52163;52.212;-1.002;2022-08-19T01:29:08;7.30;;;3.00;;
62951;SDS011;52163;52.212;-1.002;2022-08-19T01:31:34;7.60;;;2.40;;
62951;SDS011;52163;52.212;-1.002;2022-08-19T01:34:02;6.60;;;2.70;;
62951;SDS011;52163;52.212;-1.002;2022-08-19T01:36:31;6.80;;;3.00;;
62951;SDS011;52163;52.212;-1.002;2022-08-19T01:39:02;5.30;;;3.10;;
62951;SDS011;52163;52.212;-1.002;2022-08-19T01:41:31;8.80;;;2.80;;
62951;SDS011;52163;52.212;-1.002;2022-08-19T01:43:57;5.10;;;2.50;;
62951;SDS011;52163;52.212;-1.002;2022-08-19T01:46:23;5.00;;;2.10;;
62951;SDS011;52163;52.212;-1.002;2022-08-19T01:48:49;4.60;;;2.30;;
62951;SDS011;52163;52.212;-1.002;2022-08-19T01:51:14;7.10;;;3.00;;
62951;SDS011;52163;52.212;-1.002;2022-08-19T01:53:40;7.00;;;2.70;;
62951;SDS011;52163;52.212;-1.002;2022-08-19T01:56:06;6.40;;;2.90;;
62951;SDS011;52163;52.212;-1.002;2022-08-19T01:58:35;10.30;;;3.20;;
62951;SDS011;52163;52.212;-1.002;2022-08-19T02:01:04;7.50;;;2.80;;
62951;SDS011;52163;52.212;-1.002;2022-08-19T02:03:30;6.30;;;2.70;;
62951;SDS011;52163;52.212;-1.002;2022-08-19T02:05:56;5.70;;;2.50;;
62951;SDS011;52163;52.212;-1.002;2022-08-19T02:08:25;4.40;;;2.50;;
62951;SDS011;52163;52.212;-1.002;2022-08-19T02:10:54;4.70;;;2.30;;
62951;SDS011;52163;52.212;-1.002;2022-08-19T02:13:19;7.90;;;2.50;;
62951;SDS011;52163;52.212;-1.002;2022-08-19T02:15:45;6.70;;;2.60;;
62951;SDS011;52163;52.212;-1.002;2022-08-19T02:18:11;6.40;;;3.20;;
62951;SDS011;52163;52.212;-1.002;2022-08-19T02:20:37;6.60;;;3.00;;
62951;SDS011;52163;52.212;-1.002;2022-08-19T02:23:05;6.40;;;2.60;;
62951;SDS011;52163;52.212;-1.002;2022-08-19T02:25:32;6.70;;;2.70;;
62951;SDS011;52163;52.212;-1.002;2022-08-19T02:27:57;5.30;;;2.60;;
62951;SDS011;52163;52.212;-1.002;2022-08-19T02:30:24;4.80;;;2.40;;
62951;SDS011;52163;52.212;-1.002;2022-08-19T02:32:50;5.10;;;2.40;;
62951;SDS011;52163;52.212;-1.002;2022-08-19T02:35:16;6.80;;;2.60;;
62951;SDS011;52163;52.212;-1.002;2022-08-19T02:37:42;8.00;;;2.90;;
62951;SDS011;52163;52.212;-1.002;2022-08-19T02:40:28;5.90;;;3.10;;
62951;SDS011;52163;52.212;-1.002;2022-08-19T02:42:54;6.10;;;2.60;;
62951;SDS011;52163;52.212;-1.002;2022-08-19T02:45:20;7.90;;;2.30;;
62951;SDS011;52163;52.212;-1.002;2022-08-19T02:47:47;5.00;;;2.50;;
62951;SDS011;52163;52.212;-1.002;2022-08-19T02:50:12;4.20;;;2.10;;
62951;SDS011;52163;52.212;-1.002;2022-08-19T02:52:38;5.20;;;2.20;;
62951;SDS011;52163;52.212;-1.002;2022-08-19T02:55:04;9.40;;;2.40;;
62951;SDS011;52163;52.212;-1.002;2022-08-19T02:57:31;5.60;;;2.40;;
62951;SDS011;52163;52.212;-1.002;2022-08-19T02:59:57;8.60;;;2.80;;
62951;SDS011;52163;52.212;-1.002;2022-08-19T03:02:22;6.50;;;2.60;;
62951;SDS011;52163;52.212;-1.002;2022-08-19T03:04:48;6.90;;;2.60;;
62951;SDS011;52163;52.212;-1.002;2022-08-19T03:07:15;5.70;;;2.60;;
62951;SDS011;52163;52.212;-1.002;2022-08-19T03:09:41;4.50;;;1.90;;
62951;SDS011;52163;52.212;-1.002;2022-08-19T03:12:10;4.60;;;1.90;;
62951;SDS011;52163;52.212;-1.002;2022-08-19T03:14:36;6.60;;;1.90;;
62951;SDS011;52163;52.212;-1.002;2022-08-19T03:17:02;7.70;;;2.30;;
62951;SDS011;52163;52.212;-1.002;2022-08-19T03:19:29;6.00;;;2.30;;
62951;SDS011;52163;52.212;-1.002;2022-08-19T03:21:56;8.00;;;2.30;;
62951;SDS011;52163;52.212;-1.002;2022-08-19T03:24:22;5.70;;;1.70;;
62951;SDS011;52163;52.212;-1.002;2022-08-19T03:26:50;5.80;;;1.90;;
62951;SDS011;52163;52.212;-1.002;2022-08-19T03:29:20;7.40;;;1.90;;
62951;SDS011;52163;52.212;-1.002;2022-08-19T03:31:45;4.10;;;1.40;;
62951;SDS011;52163;52.212;-1.002;2022-08-19T03:34:11;4.80;;;1.60;;
62951;SDS011;52163;52.212;-1.002;2022-08-19T03:36:42;5.50;;;1.90;;
62951;SDS011;52163;52.212;-1.002;2022-08-19T03:39:09;4.00;;;1.70;;
62951;SDS011;52163;52.212;-1.002;2022-08-19T03:41:40;5.00;;;1.80;;
62951;SDS011;52163;52.212;-1.002;2022-08-19T03:44:07;3.00;;;1.50;;
62951;SDS011;52163;52.212;-1.002;2022-08-19T03:46:33;2.90;;;1.30;;
62951;SDS011;52163;52.212;-1.002;2022-08-19T03:49:01;3.20;;;1.20;;
62951;SDS011;52163;52.212;-1.002;2022-08-19T03:51:33;6.00;;;1.20;;
62951;SDS011;52163;52.212;-1.002;2022-08-19T03:54:04;4.90;;;1.20;;
62951;SDS011;52163;52.212;-1.002;2022-08-19T03:56:36;3.60;;;1.40;;
62951;SDS011;52163;52.212;-1.002;2022-08-19T03:59:04;3.30;;;1.60;;
62951;SDS011;52163;52.212;-1.002;2022-08-19T04:01:31;6.20;;;1.60;;
62951;SDS011;52163;52.212;-1.002;2022-08-19T04:03:57;3.90;;;1.50;;
62951;SDS011;52163;52.212;-1.002;2022-08-19T04:06:27;4.20;;;1.40;;
62951;SDS011;52163;52.212;-1.002;2022-08-19T04:08:55;1.70;;;1.00;;
62951;SDS011;52163;52.212;-1.002;2022-08-19T04:11:24;2.50;;;1.10;;
62951;SDS011;52163;52.212;-1.002;2022-08-19T04:13:52;2.40;;;1.20;;
62951;SDS011;52163;52.212;-1.002;2022-08-19T04:16:19;4.40;;;1.40;;
62951;SDS011;52163;52.212;-1.002;2022-08-19T04:18:47;5.10;;;1.80;;
62951;SDS011;52163;52.212;-1.002;2022-08-19T04:21:20;3.80;;;1.60;;
62951;SDS011;52163;52.212;-1.002;2022-08-19T04:23:49;4.20;;;1.60;;
62951;SDS011;52163;52.212;-1.002;2022-08-19T04:26:23;3.50;;;1.20;;
62951;SDS011;52163;52.212;-1.002;2022-08-19T04:28:50;3.20;;;1.30;;
62951;SDS011;52163;52.212;-1.002;2022-08-19T04:31:20;6.70;;;1.60;;
62951;SDS011;52163;52.212;-1.002;2022-08-19T04:33:51;5.40;;;1.40;;
62951;SDS011;52163;52.212;-1.002;2022-08-19T04:36:28;2.70;;;1.50;;
62951;SDS011;52163;52.212;-1.002;2022-08-19T04:38:57;4.70;;;1.70;;
62951;SDS011;52163;52.212;-1.002;2022-08-19T04:41:24;4.70;;;1.70;;
62951;SDS011;52163;52.212;-1.002;2022-08-19T04:44:09;6.00;;;1.80;;
62951;SDS011;52163;52.212;-1.002;2022-08-19T04:46:35;4.20;;;1.80;;
62951;SDS011;52163;52.212;-1.002;2022-08-19T04:49:02;3.50;;;1.40;;
62951;SDS011;52163;52.212;-1.002;2022-08-19T04:51:30;3.30;;;1.50;;
62951;SDS011;52163;52.212;-1.002;2022-08-19T04:53:57;3.10;;;1.60;;
62951;SDS011;52163;52.212;-1.002;2022-08-19T04:56:25;3.70;;;2.20;;
62951;SDS011;52163;52.212;-1.002;2022-08-19T04:58:52;5.80;;;2.00;;
62951;SDS011;52163;52.212;-1.002;2022-08-19T05:01:22;4.50;;;2.20;;
62951;SDS011;52163;52.212;-1.002;2022-08-19T05:03:50;7.30;;;2.00;;
62951;SDS011;52163;52.212;-1.002;2022-08-19T05:06:18;4.90;;;2.10;;
62951;SDS011;52163;52.212;-1.002;2022-08-19T05:08:45;4.50;;;2.10;;
62951;SDS011;52163;52.212;-1.002;2022-08-19T05:11:22;4.70;;;2.00;;
62951;SDS011;52163;52.212;-1.002;2022-08-19T05:13:50;3.40;;;1.90;;
62951;SDS011;52163;52.212;-1.002;2022-08-19T05:16:18;3.90;;;1.70;;
62951;SDS011;52163;52.212;-1.002;2022-08-19T05:18:45;6.10;;;2.50;;
62951;SDS011;52163;52.212;-1.002;2022-08-19T05:21:31;5.20;;;2.20;;
62951;SDS011;52163;52.212;-1.002;2022-08-19T05:24:16;6.50;;;2.00;;
62951;SDS011;52163;52.212;-1.002;2022-08-19T05:26:43;7.50;;;2.40;;
62951;SDS011;52163;52.212;-1.002;2022-08-19T05:29:11;8.20;;;2.70;;
62951;SDS011;52163;52.212;-1.002;2022-08-19T05:31:38;9.70;;;2.70;;
62951;SDS011;52163;52.212;-1.002;2022-08-19T05:34:05;7.10;;;3.00;;
62951;SDS011;52163;52.212;-1.002;2022-08-19T05:36:34;9.30;;;4.30;;
62951;SDS011;52163;52.212;-1.002;2022-08-19T05:39:06;7.20;;;3.00;;
62951;SDS011;52163;52.212;-1.002;2022-08-19T05:41:33;9.70;;;4.00;;
62951;SDS011;52163;52.212;-1.002;2022-08-19T05:44:03;8.40;;;3.80;;
62951;SDS011;52163;52.212;-1.002;2022-08-19T05:46:31;10.30;;;3.70;;
62951;SDS011;52163;52.212;-1.002;2022-08-19T05:48:57;9.20;;;3.70;;
62951;SDS011;52163;52.212;-1.002;2022-08-19T05:51:24;7.40;;;2.90;;
62951;SDS011;52163;52.212;-1.002;2022-08-19T05:53:51;3.90;;;2.30;;
62951;SDS011;52163;52.212;-1.002;2022-08-19T05:56:17;6.70;;;2.40;;
62951;SDS011;52163;52.212;-1.002;2022-08-19T05:58:44;5.60;;;2.80;;
62951;SDS011;52163;52.212;-1.002;2022-08-19T06:01:11;5.90;;;2.70;;
62951;SDS011;52163;52.212;-1.002;2022-08-19T06:03:40;9.80;;;3.40;;
62951;SDS011;52163;52.212;-1.002;2022-08-19T06:06:06;6.90;;;2.80;;
62951;SDS011;52163;52.212;-1.002;2022-08-19T06:08:33;6.40;;;2.20;;
62951;SDS011;52163;52.212;-1.002;2022-08-19T06:13:51;10.00;;;4.80;;
62951;SDS011;52163;52.212;-1.002;2022-08-19T06:16:19;12.70;;;5.80;;
62951;SDS011;52163;52.212;-1.002;2022-08-19T06:18:51;17.60;;;8.20;;
62951;SDS011;52163;52.212;-1.002;2022-08-19T06:21:19;8.10;;;4.10;;
62951;SDS011;52163;52.212;-1.002;2022-08-19T06:23:49;11.30;;;4.30;;
62951;SDS011;52163;52.212;-1.002;2022-08-19T06:26:15;7.00;;;2.80;;
62951;SDS011;52163;52.212;-1.002;2022-08-19T06:28:42;7.40;;;1.90;;
62951;SDS011;52163;52.212;-1.002;2022-08-19T06:31:11;7.70;;;2.50;;
62951;SDS011;52163;52.212;-1.002;2022-08-19T06:33:45;5.00;;;2.40;;
62951;SDS011;52163;52.212;-1.002;2022-08-19T06:38:43;7.70;;;2.80;;
62951;SDS011;52163;52.212;-1.002;2022-08-19T06:41:08;9.90;;;3.20;;
62951;SDS011;52163;52.212;-1.002;2022-08-19T06:43:35;10.10;;;3.10;;
62951;SDS011;52163;52.212;-1.002;2022-08-19T06:46:01;9.60;;;3.00;;
62951;SDS011;52163;52.212;-1.002;2022-08-19T06:48:28;9.40;;;2.50;;
62951;SDS011;52163;52.212;-1.002;2022-08-19T06:50:54;8.20;;;2.20;;
62951;SDS011;52163;52.212;-1.002;2022-08-19T06:53:20;10.50;;;2.70;;
62951;SDS011;52163;52.212;-1.002;2022-08-19T06:55:46;7.40;;;2.70;;
62951;SDS011;52163;52.212;-1.002;2022-08-19T06:58:12;11.20;;;2.90;;
62951;SDS011;52163;52.212;-1.002;2022-08-19T07:00:37;10.20;;;2.80;;
62951;SDS011;52163;52.212;-1.002;2022-08-19T07:03:04;5.50;;;2.50;;
62951;SDS011;52163;52.212;-1.002;2022-08-19T07:05:29;8.80;;;2.40;;
62951;SDS011;52163;52.212;-1.002;2022-08-19T07:07:55;13.30;;;6.20;;
62951;SDS011;52163;52.212;-1.002;2022-08-19T07:10:21;14.10;;;5.20;;
62951;SDS011;52163;52.212;-1.002;2022-08-19T07:12:46;7.80;;;3.80;;
62951;SDS011;52163;52.212;-1.002;2022-08-19T07:15:13;11.10;;;4.30;;
62951;SDS011;52163;52.212;-1.002;2022-08-19T07:17:40;10.50;;;3.40;;
62951;SDS011;52163;52.212;-1.002;2022-08-19T07:20:08;10.10;;;3.70;;
62951;SDS011;52163;52.212;-1.002;2022-08-19T07:22:34;13.90;;;3.10;;
62951;SDS011;52163;52.212;-1.002;2022-08-19T07:25:01;15.80;;;3.50;;
62951;SDS011;52163;52.212;-1.002;2022-08-19T07:27:28;9.50;;;3.30;;
62951;SDS011;52163;52.212;-1.002;2022-08-19T07:29:54;10.40;;;3.80;;
62951;SDS011;52163;52.212;-1.002;2022-08-19T07:32:20;11.00;;;3.40;;
62951;SDS011;52163;52.212;-1.002;2022-08-19T07:34:45;11.10;;;3.20;;
62951;SDS011;52163;52.212;-1.002;2022-08-19T07:37:11;13.30;;;3.10;;
62951;SDS011;52163;52.212;-1.002;2022-08-19T07:39:36;12.00;;;3.80;;
62951;SDS011;52163;52.212;-1.002;2022-08-19T07:42:04;23.70;;;6.70;;
62951;SDS011;52163;52.212;-1.002;2022-08-19T07:44:33;23.20;;;8.30;;
62951;SDS011;52163;52.212;-1.002;2022-08-19T07:46:59;16.90;;;5.10;;
62951;SDS011;52163;52.212;-1.002;2022-08-19T07:49:25;18.50;;;7.10;;
62951;SDS011;52163;52.212;-1.002;2022-08-19T07:52:05;17.30;;;5.60;;
62951;SDS011;52163;52.212;-1.002;2022-08-19T07:54:33;9.90;;;3.50;;
62951;SDS011;52163;52.212;-1.002;2022-08-19T07:57:00;14.40;;;4.30;;
62951;SDS011;52163;52.212;-1.002;2022-08-19T07:59:27;15.80;;;3.80;;
62951;SDS011;52163;52.212;-1.002;2022-08-19T08:01:54;16.00;;;3.90;;
62951;SDS011;52163;52.212;-1.002;2022-08-19T08:04:21;15.50;;;4.70;;
62951;SDS011;52163;52.212;-1.002;2022-08-19T08:07:05;18.30;;;8.30;;
62951;SDS011;52163;52.212;-1.002;2022-08-19T08:09:50;15.90;;;6.90;;
62951;SDS011;52163;52.212;-1.002;2022-08-19T08:12:21;15.20;;;4.50;;
62951;SDS011;52163;52.212;-1.002;2022-08-19T08:14:51;16.60;;;4.10;;
62951;SDS011;52163;52.212;-1.002;2022-08-19T08:17:20;10.90;;;2.90;;
62951;SDS011;52163;52.212;-1.002;2022-08-19T08:19:47;17.90;;;3.10;;
62951;SDS011;52163;52.212;-1.002;2022-08-19T08:22:16;15.80;;;3.10;;
62951;SDS011;52163;52.212;-1.002;2022-08-19T08:25:07;14.90;;;3.40;;
62951;SDS011;52163;52.212;-1.002;2022-08-19T08:27:37;17.50;;;4.00;;
62951;SDS011;52163;52.212;-1.002;2022-08-19T08:30:15;13.00;;;2.70;;
62951;SDS011;52163;52.212;-1.002;2022-08-19T08:32:43;15.60;;;3.30;;
62951;SDS011;52163;52.212;-1.002;2022-08-19T08:35:10;13.00;;;3.20;;
62951;SDS011;52163;52.212;-1.002;2022-08-19T08:37:37;15.90;;;3.90;;
62951;SDS011;52163;52.212;-1.002;2022-08-19T08:40:07;18.10;;;3.20;;
62951;SDS011;52163;52.212;-1.002;2022-08-19T08:42:44;13.60;;;2.60;;
62951;SDS011;52163;52.212;-1.002;2022-08-19T08:45:17;18.40;;;3.20;;
62951;SDS011;52163;52.212;-1.002;2022-08-19T08:47:44;10.40;;;2.90;;
62951;SDS011;52163;52.212;-1.002;2022-08-19T08:52:47;13.80;;;3.50;;
62951;SDS011;52163;52.212;-1.002;2022-08-19T08:55:20;15.40;;;3.80;;
62951;SDS011;52163;52.212;-1.002;2022-08-19T09:00:19;15.50;;;3.10;;
62951;SDS011;52163;52.212;-1.002;2022-08-19T09:16:47;21.00;;;3.70;;
62951;SDS011;52163;52.212;-1.002;2022-08-19T09:19:14;20.10;;;3.10;;
62951;SDS011;52163;52.212;-1.002;2022-08-19T09:21:42;17.00;;;3.60;;
62951;SDS011;52163;52.212;-1.002;2022-08-19T09:24:07;12.90;;;2.90;;
62951;SDS011;52163;52.212;-1.002;2022-08-19T09:26:33;13.00;;;2.80;;
62951;SDS011;52163;52.212;-1.002;2022-08-19T09:29:00;23.80;;;3.80;;
62951;SDS011;52163;52.212;-1.002;2022-08-19T09:31:27;15.30;;;3.10;;
62951;SDS011;52163;52.212;-1.002;2022-08-19T09:33:54;17.30;;;3.30;;
62951;SDS011;52163;52.212;-1.002;2022-08-19T09:36:24;15.30;;;3.10;;
62951;SDS011;52163;52.212;-1.002;2022-08-19T09:38:52;18.60;;;3.40;;
62951;SDS011;52163;52.212;-1.002;2022-08-19T09:41:19;17.70;;;2.50;;
62951;SDS011;52163;52.212;-1.002;2022-08-19T09:43:51;12.30;;;2.10;;
62951;SDS011;52163;52.212;-1.002;2022-08-19T09:46:21;13.90;;;3.30;;
62951;SDS011;52163;52.212;-1.002;2022-08-19T09:48:47;17.30;;;3.10;;
62951;SDS011;52163;52.212;-1.002;2022-08-19T09:51:16;17.80;;;3.30;;
62951;SDS011;52163;52.212;-1.002;2022-08-19T09:53:45;19.20;;;2.60;;
62951;SDS011;52163;52.212;-1.002;2022-08-19T09:56:11;21.40;;;3.40;;
62951;SDS011;52163;52.212;-1.002;2022-08-19T09:58:38;16.40;;;2.20;;
62951;SDS011;52163;52.212;-1.002;2022-08-19T10:01:05;18.30;;;2.40;;
62951;SDS011;52163;52.212;-1.002;2022-08-19T10:03:32;18.90;;;2.30;;
62951;SDS011;52163;52.212;-1.002;2022-08-19T10:06:00;14.70;;;2.10;;
62951;SDS011;52163;52.212;-1.002;2022-08-19T10:08:30;17.30;;;2.30;;
62951;SDS011;52163;52.212;-1.002;2022-08-19T10:10:58;13.40;;;2.20;;
62951;SDS011;52163;52.212;-1.002;2022-08-19T10:13:25;20.50;;;3.30;;
62951;SDS011;52163;52.212;-1.002;2022-08-19T10:15:55;22.90;;;2.30;;
62951;SDS011;52163;52.212;-1.002;2022-08-19T10:20:51;19.90;;;2.40;;
62951;SDS011;52163;52.212;-1.002;2022-08-19T10:23:20;14.80;;;2.10;;
62951;SDS011;52163;52.212;-1.002;2022-08-19T10:25:46;17.00;;;2.50;;
62951;SDS011;52163;52.212;-1.002;2022-08-19T10:28:11;22.90;;;3.70;;
62951;SDS011;52163;52.212;-1.002;2022-08-19T10:30:40;18.70;;;3.40;;
62951;SDS011;52163;52.212;-1.002;2022-08-19T10:33:06;13.70;;;2.40;;
62951;SDS011;52163;52.212;-1.002;2022-08-19T10:35:32;14.80;;;2.30;;
62951;SDS011;52163;52.212;-1.002;2022-08-19T10:37:58;19.50;;;2.60;;
62951;SDS011;52163;52.212;-1.002;2022-08-19T10:40:25;13.80;;;2.60;;
62951;SDS011;52163;52.212;-1.002;2022-08-19T10:42:52;20.10;;;4.10;;
62951;SDS011;52163;52.212;-1.002;2022-08-19T10:45:19;17.30;;;2.00;;
62951;SDS011;52163;52.212;-1.002;2022-08-19T10:47:47;16.20;;;2.40;;
62951;SDS011;52163;52.212;-1.002;2022-08-19T10:50:13;18.70;;;3.80;;
62951;SDS011;52163;52.212;-1.002;2022-08-19T10:52:57;17.40;;;2.70;;
62951;SDS011;52163;52.212;-1.002;2022-08-19T10:55:23;18.90;;;3.20;;
62951;SDS011;52163;52.212;-1.002;2022-08-19T10:58:12;18.50;;;2.50;;
62951;SDS011;52163;52.212;-1.002;2022-08-19T11:00:39;21.10;;;3.30;;
62951;SDS011;52163;52.212;-1.002;2022-08-19T11:03:05;15.90;;;2.40;;
62951;SDS011;52163;52.212;-1.002;2022-08-19T11:05:31;20.00;;;3.20;;
62951;SDS011;52163;52.212;-1.002;2022-08-19T11:07:56;18.40;;;2.90;;
62951;SDS011;52163;52.212;-1.002;2022-08-19T11:10:21;13.70;;;2.30;;
62951;SDS011;52163;52.212;-1.002;2022-08-19T11:12:48;14.70;;;2.40;;
62951;SDS011;52163;52.212;-1.002;2022-08-19T11:15:19;19.20;;;2.90;;
62951;SDS011;52163;52.212;-1.002;2022-08-19T11:17:44;18.00;;;3.40;;
62951;SDS011;52163;52.212;-1.002;2022-08-19T11:20:13;17.70;;;2.50;;
62951;SDS011;52163;52.212;-1.002;2022-08-19T11:22:40;19.30;;;3.10;;
62951;SDS011;52163;52.212;-1.002;2022-08-19T11:25:07;10.80;;;1.80;;
62951;SDS011;52163;52.212;-1.002;2022-08-19T11:27:33;16.90;;;2.70;;
62951;SDS011;52163;52.212;-1.002;2022-08-19T11:30:04;13.10;;;2.10;;
62951;SDS011;52163;52.212;-1.002;2022-08-19T11:32:32;14.80;;;2.80;;
62951;SDS011;52163;52.212;-1.002;2022-08-19T11:34:58;15.30;;;2.40;;
62951;SDS011;52163;52.212;-1.002;2022-08-19T11:37:24;14.40;;;2.40;;
62951;SDS011;52163;52.212;-1.002;2022-08-19T11:39:49;17.00;;;2.30;;
62951;SDS011;52163;52.212;-1.002;2022-08-19T11:42:14;14.90;;;2.90;;
62951;SDS011;52163;52.212;-1.002;2022-08-19T11:44:58;15.60;;;2.40;;
62951;SDS011;52163;52.212;-1.002;2022-08-19T11:47:24;15.30;;;2.30;;
62951;SDS011;52163;52.212;-1.002;2022-08-19T11:49:50;12.70;;;2.30;;
62951;SDS011;52163;52.212;-1.002;2022-08-19T11:52:16;14.80;;;2.40;;
62951;SDS011;52163;52.212;-1.002;2022-08-19T11:54:41;10.50;;;2.00;;
62951;SDS011;52163;52.212;-1.002;2022-08-19T11:57:06;17.00;;;2.70;;
62951;SDS011;52163;52.212;-1.002;2022-08-19T11:59:32;13.20;;;2.30;;
62951;SDS011;52163;52.212;-1.002;2022-08-19T12:01:57;14.50;;;2.30;;
62951;SDS011;52163;52.212;-1.002;2022-08-19T12:04:24;11.90;;;2.40;;
62951;SDS011;52163;52.212;-1.002;2022-08-19T12:06:49;13.00;;;3.60;;
62951;SDS011;52163;52.212;-1.002;2022-08-19T12:09:15;16.90;;;3.60;;
62951;SDS011;52163;52.212;-1.002;2022-08-19T12:11:42;15.70;;;5.60;;
62951;SDS011;52163;52.212;-1.002;2022-08-19T12:14:11;17.60;;;5.40;;
62951;SDS011;52163;52.212;-1.002;2022-08-19T12:16:38;28.40;;;9.80;;
62951;SDS011;52163;52.212;-1.002;2022-08-19T12:19:05;20.70;;;4.90;;
62951;SDS011;52163;52.212;-1.002;2022-08-19T12:21:33;13.10;;;2.90;;
62951;SDS011;52163;52.212;-1.002;2022-08-19T12:24:00;7.80;;;2.50;;
62951;SDS011;52163;52.212;-1.002;2022-08-19T12:26:27;15.00;;;2.30;;
62951;SDS011;52163;52.212;-1.002;2022-08-19T12:28:56;10.60;;;3.20;;
62951;SDS011;52163;52.212;-1.002;2022-08-19T12:31:24;9.50;;;2.60;;
62951;SDS011;52163;52.212;-1.002;2022-08-19T12:33:51;15.60;;;3.20;;
62951;SDS011;52163;52.212;-1.002;2022-08-19T12:36:17;10.90;;;2.30;;
62951;SDS011;52163;52.212;-1.002;2022-08-19T12:38:43;10.10;;;2.70;;
62951;SDS011;52163;52.212;-1.002;2022-08-19T12:41:13;16.50;;;2.30;;
62951;SDS011;52163;52.212;-1.002;2022-08-19T12:43:42;10.00;;;2.10;;
62951;SDS011;52163;52.212;-1.002;2022-08-19T12:46:08;12.90;;;2.30;;
62951;SDS011;52163;52.212;-1.002;2022-08-19T12:48:34;10.50;;;2.20;;
62951;SDS011;52163;52.212;-1.002;2022-08-19T12:51:00;12.20;;;2.90;;
62951;SDS011;52163;52.212;-1.002;2022-08-19T12:53:30;9.50;;;2.60;;
62951;SDS011;52163;52.212;-1.002;2022-08-19T12:55:56;12.60;;;2.50;;
62951;SDS011;52163;52.212;-1.002;2022-08-19T12:58:23;16.30;;;2.70;;
62951;SDS011;52163;52.212;-1.002;2022-08-19T13:00:48;11.60;;;2.50;;
62951;SDS011;52163;52.212;-1.002;2022-08-19T13:03:14;8.60;;;2.10;;
62951;SDS011;52163;52.212;-1.002;2022-08-19T13:05:40;9.90;;;1.90;;
62951;SDS011;52163;52.212;-1.002;2022-08-19T13:08:06;9.00;;;2.10;;
62951;SDS011;52163;52.212;-1.002;2022-08-19T13:10:33;12.50;;;2.20;;
62951;SDS011;52163;52.212;-1.002;2022-08-19T13:13:00;10.60;;;1.80;;
62951;SDS011;52163;52.212;-1.002;2022-08-19T13:15:28;11.70;;;2.20;;
62951;SDS011;52163;52.212;-1.002;2022-08-19T13:17:54;11.30;;;2.10;;
62951;SDS011;52163;52.212;-1.002;2022-08-19T13:20:20;14.30;;;2.60;;
62951;SDS011;52163;52.212;-1.002;2022-08-19T13:22:47;10.10;;;2.30;;
62951;SDS011;52163;52.212;-1.002;2022-08-19T13:25:14;14.80;;;2.70;;
62951;SDS011;52163;52.212;-1.002;2022-08-19T13:27:42;11.10;;;2.30;;
62951;SDS011;52163;52.212;-1.002;2022-08-19T13:30:09;14.80;;;2.40;;
62951;SDS011;52163;52.212;-1.002;2022-08-19T13:32:55;16.90;;;2.40;;
62951;SDS011;52163;52.212;-1.002;2022-08-19T13:35:36;11.60;;;2.10;;
62951;SDS011;52163;52.212;-1.002;2022-08-19T13:38:25;12.40;;;2.60;;
62951;SDS011;52163;52.212;-1.002;2022-08-19T13:40:52;10.10;;;1.70;;
62951;SDS011;52163;52.212;-1.002;2022-08-19T13:43:19;12.80;;;2.00;;
62951;SDS011;52163;52.212;-1.002;2022-08-19T13:45:47;12.40;;;2.00;;
62951;SDS011;52163;52.212;-1.002;2022-08-19T13:48:13;8.40;;;1.90;;
62951;SDS011;52163;52.212;-1.002;2022-08-19T13:50:40;13.70;;;2.00;;
62951;SDS011;52163;52.212;-1.002;2022-08-19T13:53:08;9.80;;;1.80;;
62951;SDS011;52163;52.212;-1.002;2022-08-19T13:55:36;11.80;;;3.00;;
62951;SDS011;52163;52.212;-1.002;2022-08-19T13:58:03;12.70;;;1.90;;
62951;SDS011;52163;52.212;-1.002;2022-08-19T14:00:31;10.70;;;1.90;;
62951;SDS011;52163;52.212;-1.002;2022-08-19T14:03:00;10.40;;;2.60;;
62951;SDS011;52163;52.212;-1.002;2022-08-19T14:05:27;8.90;;;1.70;;
62951;SDS011;52163;52.212;-1.002;2022-08-19T14:07:54;13.80;;;2.30;;
62951;SDS011;52163;52.212;-1.002;2022-08-19T14:10:20;12.20;;;2.10;;
62951;SDS011;52163;52.212;-1.002;2022-08-19T14:12:48;15.40;;;3.50;;
62951;SDS011;52163;52.212;-1.002;2022-08-19T14:15:14;11.90;;;2.40;;
62951;SDS011;52163;52.212;-1.002;2022-08-19T14:17:40;11.30;;;2.00;;
62951;SDS011;52163;52.212;-1.002;2022-08-19T14:20:09;8.90;;;2.10;;
62951;SDS011;52163;52.212;-1.002;2022-08-19T14:22:37;10.00;;;2.10;;
62951;SDS011;52163;52.212;-1.002;2022-08-19T14:25:06;13.60;;;5.00;;
62951;SDS011;52163;52.212;-1.002;2022-08-19T14:27:34;14.20;;;4.60;;
62951;SDS011;52163;52.212;-1.002;2022-08-19T14:30:01;28.70;;;11.90;;
62951;SDS011;52163;52.212;-1.002;2022-08-19T14:32:28;10.90;;;2.90;;
62951;SDS011;52163;52.212;-1.002;2022-08-19T14:34:54;8.80;;;1.70;;
62951;SDS011;52163;52.212;-1.002;2022-08-19T14:37:19;12.80;;;3.60;;
62951;SDS011;52163;52.212;-1.002;2022-08-19T14:39:47;17.10;;;4.90;;
62951;SDS011;52163;52.212;-1.002;2022-08-19T14:42:13;10.00;;;3.70;;
62951;SDS011;52163;52.212;-1.002;2022-08-19T14:44:41;10.90;;;2.90;;
62951;SDS011;52163;52.212;-1.002;2022-08-19T14:47:07;12.40;;;2.00;;
62951;SDS011;52163;52.212;-1.002;2022-08-19T14:49:34;6.60;;;1.50;;
62951;SDS011;52163;52.212;-1.002;2022-08-19T14:52:00;11.00;;;1.60;;
62951;SDS011;52163;52.212;-1.002;2022-08-19T14:54:25;7.40;;;1.70;;
62951;SDS011;52163;52.212;-1.002;2022-08-19T14:56:51;9.30;;;1.80;;
62951;SDS011;52163;52.212;-1.002;2022-08-19T14:59:16;10.40;;;2.60;;